sensor_id;sensor_type;location;lat;lon;timestamp;pressure;altitude;pressure_sealevel;temperature;humidity
35489;BME280;21602;55.670;37.578;2022-07-09T00:00:49;99300.72;;;21.78;64.83
35489;BME280;21602;55.670;37.578;2022-07-09T00:03:14;99303.69;;;21.68;64.69
35489;BME280;21602;55.670;37.578;2022-07-09T00:05:40;99303.63;;;21.59;64.41
35489;BME280;21602;55.670;37.578;2022-07-09T00:08:05;99304.38;;;21.51;64.78
35489;BME280;21602;55.670;37.578;2022-07-09T00:10:31;99310.72;;;21.46;64.42
35489;BME280;21602;55.670;37.578;2022-07-09T00:12:57;99296.63;;;21.44;63.26
35489;BME280;21602;55.670;37.578;2022-07-09T00:15:22;99299.66;;;21.43;63.61
35489;BME280;21602;55.670;37.578;2022-07-09T00:17:49;99308.72;;;21.38;64.20
35489;BME280;21602;55.670;37.578;2022-07-09T00:20:15;99313.63;;;21.36;64.08
35489;BME280;21602;55.670;37.578;2022-07-09T00:22:41;99310.63;;;21.38;64.22
35489;BME280;21602;55.670;37.578;2022-07-09T00:25:06;99307.81;;;21.43;63.75
35489;BME280;21602;55.670;37.578;2022-07-09T00:27:32;99295.22;;;21.47;64.22
35489;BME280;21602;55.670;37.578;2022-07-09T00:29:57;99309.81;;;21.51;65.55
35489;BME280;21602;55.670;37.578;2022-07-09T00:32:23;99308.69;;;21.52;65.66
35489;BME280;21602;55.670;37.578;2022-07-09T00:34:48;99306.88;;;21.47;65.80
35489;BME280;21602;55.670;37.578;2022-07-09T00:37:14;99309.22;;;21.40;66.48
35489;BME280;21602;55.670;37.578;2022-07-09T00:39:40;99311.56;;;21.33;66.75
35489;BME280;21602;55.670;37.578;2022-07-09T00:42:06;99308.91;;;21.28;66.98
35489;BME280;21602;55.670;37.578;2022-07-09T00:44:32;99304.09;;;21.25;66.48
35489;BME280;21602;55.670;37.578;2022-07-09T00:46:57;99306.00;;;21.25;67.45
35489;BME280;21602;55.670;37.578;2022-07-09T00:49:24;99301.16;;;21.21;67.00
35489;BME280;21602;55.670;37.578;2022-07-09T00:51:50;99298.28;;;21.18;66.52
35489;BME280;21602;55.670;37.578;2022-07-09T00:54:15;99297.28;;;21.14;66.50
35489;BME280;21602;55.670;37.578;2022-07-09T00:56:41;99300.81;;;21.14;67.18
35489;BME280;21602;55.670;37.578;2022-07-09T00:59:07;99304.91;;;21.12;66.67
35489;BME280;21602;55.670;37.578;2022-07-09T01:01:38;99295.16;;;21.11;66.65
35489;BME280;21602;55.670;37.578;2022-07-09T01:04:03;99293.25;;;21.11;66.08
35489;BME280;21602;55.670;37.578;2022-07-09T01:06:29;99300.00;;;21.14;66.26
35489;BME280;21602;55.670;37.578;2022-07-09T01:08:55;99309.63;;;21.20;67.36
35489;BME280;21602;55.670;37.578;2022-07-09T01:11:20;99309.31;;;21.21;67.72
35489;BME280;21602;55.670;37.578;2022-07-09T01:13:46;99306.00;;;21.25;67.95
35489;BME280;21602;55.670;37.578;2022-07-09T01:16:12;99309.53;;;21.25;66.66
35489;BME280;21602;55.670;37.578;2022-07-09T01:18:39;99310.84;;;21.28;67.24
35489;BME280;21602;55.670;37.578;2022-07-09T01:21:04;99305.41;;;21.28;67.63
35489;BME280;21602;55.670;37.578;2022-07-09T01:23:30;99305.88;;;21.30;68.08
35489;BME280;21602;55.670;37.578;2022-07-09T01:25:56;99316.75;;;21.30;68.05
35489;BME280;21602;55.670;37.578;2022-07-09T01:28:22;99314.34;;;21.28;68.25
35489;BME280;21602;55.670;37.578;2022-07-09T01:30:47;99306.50;;;21.27;68.64
35489;BME280;21602;55.670;37.578;2022-07-09T01:33:13;99306.50;;;21.27;68.80
35489;BME280;21602;55.670;37.578;2022-07-09T01:35:38;99306.81;;;21.25;69.25
35489;BME280;21602;55.670;37.578;2022-07-09T01:38:04;99299.78;;;21.24;69.12
35489;BME280;21602;55.670;37.578;2022-07-09T01:40:29;99301.06;;;21.27;68.53
35489;BME280;21602;55.670;37.578;2022-07-09T01:42:55;99304.28;;;21.29;69.31
35489;BME280;21602;55.670;37.578;2022-07-09T01:45:21;99294.84;;;21.26;68.81
35489;BME280;21602;55.670;37.578;2022-07-09T01:47:46;99290.50;;;21.25;67.79
35489;BME280;21602;55.670;37.578;2022-07-09T01:50:12;99294.84;;;21.26;67.83
35489;BME280;21602;55.670;37.578;2022-07-09T01:52:37;99298.66;;;21.25;67.46
35489;BME280;21602;55.670;37.578;2022-07-09T01:55:03;99294.53;;;21.28;67.19
35489;BME280;21602;55.670;37.578;2022-07-09T01:57:29;99296.94;;;21.29;67.49
35489;BME280;21602;55.670;37.578;2022-07-09T01:59:55;99298.06;;;21.28;67.07
35489;BME280;21602;55.670;37.578;2022-07-09T02:02:20;99301.38;;;21.25;66.78
35489;BME280;21602;55.670;37.578;2022-07-09T02:04:46;99297.84;;;21.25;66.50
35489;BME280;21602;55.670;37.578;2022-07-09T02:07:12;99301.88;;;21.27;66.30
35489;BME280;21602;55.670;37.578;2022-07-09T02:09:38;99305.41;;;21.28;66.58
35489;BME280;21602;55.670;37.578;2022-07-09T02:12:04;99299.66;;;21.29;66.63
35489;BME280;21602;55.670;37.578;2022-07-09T02:14:30;99309.53;;;21.25;66.44
35489;BME280;21602;55.670;37.578;2022-07-09T02:16:55;99304.59;;;21.27;67.12
35489;BME280;21602;55.670;37.578;2022-07-09T02:19:21;99305.59;;;21.31;67.06
35489;BME280;21602;55.670;37.578;2022-07-09T02:21:46;99307.72;;;21.34;67.26
35489;BME280;21602;55.670;37.578;2022-07-09T02:24:12;99305.00;;;21.34;67.66
35489;BME280;21602;55.670;37.578;2022-07-09T02:26:38;99306.19;;;21.28;67.89
35489;BME280;21602;55.670;37.578;2022-07-09T02:29:03;99306.91;;;21.20;68.61
35489;BME280;21602;55.670;37.578;2022-07-09T02:31:29;99300.69;;;21.19;68.76
35489;BME280;21602;55.670;37.578;2022-07-09T02:33:55;99303.88;;;21.21;68.77
35489;BME280;21602;55.670;37.578;2022-07-09T02:36:22;99310.31;;;21.26;68.46
35489;BME280;21602;55.670;37.578;2022-07-09T02:38:47;99311.56;;;21.33;68.57
35489;BME280;21602;55.670;37.578;2022-07-09T02:41:14;99317.06;;;21.42;68.76
35489;BME280;21602;55.670;37.578;2022-07-09T02:43:40;99317.44;;;21.49;68.54
35489;BME280;21602;55.670;37.578;2022-07-09T02:46:09;99324.97;;;21.52;68.30
35489;BME280;21602;55.670;37.578;2022-07-09T02:48:34;99330.41;;;21.52;68.12
35489;BME280;21602;55.670;37.578;2022-07-09T02:51:00;99326.59;;;21.53;67.79
35489;BME280;21602;55.670;37.578;2022-07-09T02:53:26;99319.13;;;21.59;68.41
35489;BME280;21602;55.670;37.578;2022-07-09T02:55:51;99323.94;;;21.62;68.43
35489;BME280;21602;55.670;37.578;2022-07-09T02:58:17;99315.66;;;21.67;68.07
35489;BME280;21602;55.670;37.578;2022-07-09T03:00:42;99321.09;;;21.67;68.65
35489;BME280;21602;55.670;37.578;2022-07-09T03:03:08;99320.13;;;21.63;68.33
35489;BME280;21602;55.670;37.578;2022-07-09T03:05:34;99317.72;;;21.61;68.45
35489;BME280;21602;55.670;37.578;2022-07-09T03:08:00;99327.94;;;21.64;68.32
35489;BME280;21602;55.670;37.578;2022-07-09T03:10:25;99334.22;;;21.65;67.97
35489;BME280;21602;55.670;37.578;2022-07-09T03:12:51;99345.06;;;21.65;67.99
35489;BME280;21602;55.670;37.578;2022-07-09T03:15:16;99341.25;;;21.66;68.07
35489;BME280;21602;55.670;37.578;2022-07-09T03:17:43;99340.81;;;21.72;68.12
35489;BME280;21602;55.670;37.578;2022-07-09T03:20:09;99329.53;;;21.79;68.24
35489;BME280;21602;55.670;37.578;2022-07-09T03:22:35;99326.38;;;21.86;68.00
35489;BME280;21602;55.670;37.578;2022-07-09T03:25:01;99316.97;;;21.92;67.79
35489;BME280;21602;55.670;37.578;2022-07-09T03:27:29;99320.22;;;22.03;67.55
35489;BME280;21602;55.670;37.578;2022-07-09T03:29:55;99326.38;;;22.08;67.57
35489;BME280;21602;55.670;37.578;2022-07-09T03:32:20;99325.94;;;22.15;67.47
35489;BME280;21602;55.670;37.578;2022-07-09T03:34:47;99324.69;;;22.21;67.39
35489;BME280;21602;55.670;37.578;2022-07-09T03:37:12;99315.63;;;22.26;66.92
35489;BME280;21602;55.670;37.578;2022-07-09T03:39:38;99311.97;;;22.30;67.11
35489;BME280;21602;55.670;37.578;2022-07-09T03:42:03;99299.47;;;22.29;67.29
35489;BME280;21602;55.670;37.578;2022-07-09T03:44:32;99282.84;;;22.31;67.65
35489;BME280;21602;55.670;37.578;2022-07-09T03:46:58;99271.31;;;22.25;67.14
35489;BME280;21602;55.670;37.578;2022-07-09T03:49:24;99255.88;;;22.12;67.26
35489;BME280;21602;55.670;37.578;2022-07-09T03:51:49;99247.75;;;21.89;68.07
35489;BME280;21602;55.670;37.578;2022-07-09T03:54:15;99249.81;;;21.61;69.20
35489;BME280;21602;55.670;37.578;2022-07-09T03:56:40;99277.09;;;21.56;70.13
35489;BME280;21602;55.670;37.578;2022-07-09T03:59:06;99281.41;;;21.57;70.33
35489;BME280;21602;55.670;37.578;2022-07-09T04:01:32;99289.13;;;21.64;70.59
35489;BME280;21602;55.670;37.578;2022-07-09T04:03:57;99292.88;;;21.77;70.18
35489;BME280;21602;55.670;37.578;2022-07-09T04:06:24;99301.31;;;21.89;70.32
35489;BME280;21602;55.670;37.578;2022-07-09T04:08:49;99302.19;;;22.07;69.88
35489;BME280;21602;55.670;37.578;2022-07-09T04:11:15;99289.88;;;22.23;68.92
35489;BME280;21602;55.670;37.578;2022-07-09T04:13:40;99295.50;;;22.35;68.27
35489;BME280;21602;55.670;37.578;2022-07-09T04:16:06;99297.94;;;22.45;68.09
35489;BME280;21602;55.670;37.578;2022-07-09T04:18:33;99297.56;;;22.61;67.21
35489;BME280;21602;55.670;37.578;2022-07-09T04:20:58;99295.03;;;22.73;66.62
35489;BME280;21602;55.670;37.578;2022-07-09T04:23:24;99304.16;;;22.77;65.74
35489;BME280;21602;55.670;37.578;2022-07-09T04:25:50;99301.59;;;22.72;66.14
35489;BME280;21602;55.670;37.578;2022-07-09T04:28:19;99299.34;;;22.74;65.55
35489;BME280;21602;55.670;37.578;2022-07-09T04:30:45;99309.63;;;22.86;65.59
35489;BME280;21602;55.670;37.578;2022-07-09T04:33:11;99310.50;;;22.95;64.88
35489;BME280;21602;55.670;37.578;2022-07-09T04:35:36;99311.31;;;23.04;64.37
35489;BME280;21602;55.670;37.578;2022-07-09T04:38:02;99312.31;;;23.17;64.68
35489;BME280;21602;55.670;37.578;2022-07-09T04:40:28;99306.56;;;23.27;64.22
35489;BME280;21602;55.670;37.578;2022-07-09T04:42:54;99307.53;;;23.31;63.16
35489;BME280;21602;55.670;37.578;2022-07-09T04:45:20;99308.00;;;23.33;63.10
35489;BME280;21602;55.670;37.578;2022-07-09T04:47:45;99301.94;;;23.36;62.59
35489;BME280;21602;55.670;37.578;2022-07-09T04:50:11;99293.28;;;23.43;62.51
35489;BME280;21602;55.670;37.578;2022-07-09T04:52:37;99293.91;;;23.48;62.05
35489;BME280;21602;55.670;37.578;2022-07-09T04:55:03;99286.53;;;23.40;61.00
35489;BME280;21602;55.670;37.578;2022-07-09T04:57:29;99288.28;;;23.45;60.88
35489;BME280;21602;55.670;37.578;2022-07-09T04:59:58;99293.75;;;23.54;60.28
35489;BME280;21602;55.670;37.578;2022-07-09T05:02:24;99280.66;;;23.64;60.73
35489;BME280;21602;55.670;37.578;2022-07-09T05:04:49;99282.53;;;23.55;60.09
35489;BME280;21602;55.670;37.578;2022-07-09T05:07:15;99278.53;;;23.27;59.53
35489;BME280;21602;55.670;37.578;2022-07-09T05:09:40;99275.75;;;23.00;60.89
35489;BME280;21602;55.670;37.578;2022-07-09T05:12:06;99274.22;;;22.77;61.31
35489;BME280;21602;55.670;37.578;2022-07-09T05:14:33;99275.31;;;22.67;61.75
35489;BME280;21602;55.670;37.578;2022-07-09T05:16:59;99276.78;;;22.73;61.57
35489;BME280;21602;55.670;37.578;2022-07-09T05:19:25;99277.34;;;22.93;61.04
35489;BME280;21602;55.670;37.578;2022-07-09T05:21:50;99276.75;;;23.22;60.21
35489;BME280;21602;55.670;37.578;2022-07-09T05:24:16;99272.91;;;23.40;59.46
35489;BME280;21602;55.670;37.578;2022-07-09T05:26:41;99273.09;;;23.61;59.60
35489;BME280;21602;55.670;37.578;2022-07-09T05:29:07;99280.63;;;23.73;58.27
35489;BME280;21602;55.670;37.578;2022-07-09T05:31:32;99276.47;;;23.84;58.21
35489;BME280;21602;55.670;37.578;2022-07-09T05:33:59;99280.75;;;24.02;57.99
35489;BME280;21602;55.670;37.578;2022-07-09T05:36:25;99288.88;;;24.20;56.99
35489;BME280;21602;55.670;37.578;2022-07-09T05:38:54;99280.16;;;24.35;56.98
35489;BME280;21602;55.670;37.578;2022-07-09T05:41:20;99287.38;;;24.48;57.11
35489;BME280;21602;55.670;37.578;2022-07-09T05:43:47;99280.38;;;24.68;56.44
35489;BME280;21602;55.670;37.578;2022-07-09T05:46:13;99277.56;;;24.86;56.20
35489;BME280;21602;55.670;37.578;2022-07-09T05:48:39;99273.94;;;25.02;55.33
35489;BME280;21602;55.670;37.578;2022-07-09T05:51:04;99267.91;;;25.18;54.67
35489;BME280;21602;55.670;37.578;2022-07-09T05:53:30;99268.09;;;25.34;54.67
35489;BME280;21602;55.670;37.578;2022-07-09T05:55:56;99273.97;;;25.44;53.55
35489;BME280;21602;55.670;37.578;2022-07-09T05:58:21;99268.84;;;25.43;53.62
35489;BME280;21602;55.670;37.578;2022-07-09T06:00:47;99264.56;;;25.33;53.42
35489;BME280;21602;55.670;37.578;2022-07-09T06:03:12;99268.84;;;25.22;53.77
35489;BME280;21602;55.670;37.578;2022-07-09T06:05:38;99262.97;;;25.11;53.79
35489;BME280;21602;55.670;37.578;2022-07-09T06:08:04;99253.13;;;25.19;53.45
35489;BME280;21602;55.670;37.578;2022-07-09T06:10:29;99264.13;;;25.31;53.62
35489;BME280;21602;55.670;37.578;2022-07-09T06:12:55;99260.72;;;25.55;53.64
35489;BME280;21602;55.670;37.578;2022-07-09T06:15:21;99248.47;;;25.73;52.44
35489;BME280;21602;55.670;37.578;2022-07-09T06:17:46;99252.31;;;25.93;52.12
35489;BME280;21602;55.670;37.578;2022-07-09T06:20:12;99256.66;;;25.94;51.48
35489;BME280;21602;55.670;37.578;2022-07-09T06:22:37;99250.75;;;26.04;52.67
35489;BME280;21602;55.670;37.578;2022-07-09T06:25:04;99249.19;;;25.83;52.05
35489;BME280;21602;55.670;37.578;2022-07-09T06:27:30;99252.81;;;25.74;51.56
35489;BME280;21602;55.670;37.578;2022-07-09T06:29:56;99257.97;;;25.55;51.93
35489;BME280;21602;55.670;37.578;2022-07-09T06:32:21;99253.50;;;25.50;52.19
35489;BME280;21602;55.670;37.578;2022-07-09T06:34:47;99248.28;;;25.58;52.16
35489;BME280;21602;55.670;37.578;2022-07-09T06:37:12;99245.63;;;25.70;51.65
35489;BME280;21602;55.670;37.578;2022-07-09T06:39:38;99248.66;;;25.89;51.66
35489;BME280;21602;55.670;37.578;2022-07-09T06:42:09;99242.91;;;26.15;51.23
35489;BME280;21602;55.670;37.578;2022-07-09T06:44:36;99235.19;;;26.42;50.60
35489;BME280;21602;55.670;37.578;2022-07-09T06:47:02;99244.56;;;26.53;50.24
35489;BME280;21602;55.670;37.578;2022-07-09T06:49:27;99245.13;;;26.59;49.75
35489;BME280;21602;55.670;37.578;2022-07-09T06:51:53;99244.84;;;26.39;49.63
35489;BME280;21602;55.670;37.578;2022-07-09T06:54:18;99237.00;;;26.38;50.18
35489;BME280;21602;55.670;37.578;2022-07-09T06:56:44;99241.94;;;26.44;50.17
35489;BME280;21602;55.670;37.578;2022-07-09T06:59:10;99238.38;;;26.44;50.27
35489;BME280;21602;55.670;37.578;2022-07-09T07:01:35;99242.84;;;26.48;50.09
35489;BME280;21602;55.670;37.578;2022-07-09T07:04:02;99230.53;;;26.54;49.61
35489;BME280;21602;55.670;37.578;2022-07-09T07:06:28;99230.59;;;26.34;49.72
35489;BME280;21602;55.670;37.578;2022-07-09T07:08:53;99227.31;;;26.28;49.72
35489;BME280;21602;55.670;37.578;2022-07-09T07:11:18;99231.75;;;26.33;50.18
35489;BME280;21602;55.670;37.578;2022-07-09T07:13:44;99240.91;;;26.49;50.39
35489;BME280;21602;55.670;37.578;2022-07-09T07:16:10;99231.44;;;26.59;49.26
35489;BME280;21602;55.670;37.578;2022-07-09T07:18:35;99232.59;;;26.70;49.77
35489;BME280;21602;55.670;37.578;2022-07-09T07:21:01;99234.19;;;26.83;49.45
35489;BME280;21602;55.670;37.578;2022-07-09T07:23:26;99240.69;;;26.78;48.69
35489;BME280;21602;55.670;37.578;2022-07-09T07:25:52;99241.81;;;26.65;48.60
35489;BME280;21602;55.670;37.578;2022-07-09T07:28:17;99258.59;;;26.51;48.90
35489;BME280;21602;55.670;37.578;2022-07-09T07:30:43;99248.53;;;26.31;48.93
35489;BME280;21602;55.670;37.578;2022-07-09T07:33:08;99251.66;;;26.09;49.87
35489;BME280;21602;55.670;37.578;2022-07-09T07:35:34;99255.59;;;25.87;49.80
35489;BME280;21602;55.670;37.578;2022-07-09T07:38:00;99247.22;;;25.71;50.23
35489;BME280;21602;55.670;37.578;2022-07-09T07:40:25;99242.38;;;25.56;50.66
35489;BME280;21602;55.670;37.578;2022-07-09T07:42:51;99238.19;;;25.37;51.32
35489;BME280;21602;55.670;37.578;2022-07-09T07:45:16;99247.00;;;25.22;51.28
35489;BME280;21602;55.670;37.578;2022-07-09T07:47:42;99251.53;;;25.18;51.45
35489;BME280;21602;55.670;37.578;2022-07-09T07:50:08;99252.97;;;25.15;51.45
35489;BME280;21602;55.670;37.578;2022-07-09T07:52:34;99259.44;;;25.11;51.61
35489;BME280;21602;55.670;37.578;2022-07-09T07:54:59;99255.59;;;25.12;51.61
35489;BME280;21602;55.670;37.578;2022-07-09T07:57:25;99258.63;;;25.10;51.33
35489;BME280;21602;55.670;37.578;2022-07-09T07:59:50;99261.06;;;25.12;52.25
35489;BME280;21602;55.670;37.578;2022-07-09T08:02:16;99271.16;;;25.11;52.17
35489;BME280;21602;55.670;37.578;2022-07-09T08:04:41;99274.56;;;25.08;52.20
35489;BME280;21602;55.670;37.578;2022-07-09T08:07:07;99285.22;;;24.92;53.17
35489;BME280;21602;55.670;37.578;2022-07-09T08:09:32;99279.78;;;24.54;54.61
35489;BME280;21602;55.670;37.578;2022-07-09T08:11:59;99286.13;;;24.28;55.37
35489;BME280;21602;55.670;37.578;2022-07-09T08:14:25;99284.72;;;24.14;56.49
35489;BME280;21602;55.670;37.578;2022-07-09T08:16:51;99287.47;;;24.05;57.68
35489;BME280;21602;55.670;37.578;2022-07-09T08:19:16;99289.41;;;24.05;57.45
35489;BME280;21602;55.670;37.578;2022-07-09T08:21:42;99282.81;;;24.06;58.08
35489;BME280;21602;55.670;37.578;2022-07-09T08:24:07;99285.53;;;24.06;57.73
35489;BME280;21602;55.670;37.578;2022-07-09T08:26:33;99284.13;;;23.99;58.08
35489;BME280;21602;55.670;37.578;2022-07-09T08:28:59;99283.97;;;23.96;57.54
35489;BME280;21602;55.670;37.578;2022-07-09T08:31:24;99281.41;;;23.91;57.90
35489;BME280;21602;55.670;37.578;2022-07-09T08:33:50;99279.66;;;23.86;57.88
35489;BME280;21602;55.670;37.578;2022-07-09T08:36:16;99278.69;;;23.82;57.86
35489;BME280;21602;55.670;37.578;2022-07-09T08:38:42;99274.38;;;23.72;58.13
35489;BME280;21602;55.670;37.578;2022-07-09T08:41:07;99275.03;;;23.69;57.94
35489;BME280;21602;55.670;37.578;2022-07-09T08:43:33;99273.28;;;23.65;58.28
35489;BME280;21602;55.670;37.578;2022-07-09T08:45:59;99279.16;;;23.58;58.64
35489;BME280;21602;55.670;37.578;2022-07-09T08:48:25;99277.72;;;23.52;58.85
35489;BME280;21602;55.670;37.578;2022-07-09T08:50:51;99288.28;;;23.54;59.41
35489;BME280;21602;55.670;37.578;2022-07-09T08:53:17;99280.66;;;23.64;58.25
35489;BME280;21602;55.670;37.578;2022-07-09T08:55:43;99278.38;;;23.75;59.09
35489;BME280;21602;55.670;37.578;2022-07-09T08:58:10;99285.72;;;23.83;59.22
35489;BME280;21602;55.670;37.578;2022-07-09T09:00:37;99283.97;;;23.87;58.82
35489;BME280;21602;55.670;37.578;2022-07-09T09:03:02;99272.59;;;23.85;59.15
35489;BME280;21602;55.670;37.578;2022-07-09T09:05:28;99281.09;;;23.84;58.25
35489;BME280;21602;55.670;37.578;2022-07-09T09:07:53;99261.69;;;23.76;59.41
35489;BME280;21602;55.670;37.578;2022-07-09T09:10:26;99259.78;;;23.86;59.13
35489;BME280;21602;55.670;37.578;2022-07-09T09:12:55;99257.31;;;24.01;59.24
35489;BME280;21602;55.670;37.578;2022-07-09T09:15:21;99249.63;;;24.12;58.86
35489;BME280;21602;55.670;37.578;2022-07-09T09:17:46;99251.38;;;24.17;58.51
35489;BME280;21602;55.670;37.578;2022-07-09T09:20:15;99245.91;;;24.17;58.42
35489;BME280;21602;55.670;37.578;2022-07-09T09:22:48;99248.63;;;24.17;57.96
35489;BME280;21602;55.670;37.578;2022-07-09T09:25:17;99245.91;;;24.17;58.54
35489;BME280;21602;55.670;37.578;2022-07-09T09:27:50;99239.78;;;24.20;58.44
35489;BME280;21602;55.670;37.578;2022-07-09T09:30:16;99235.59;;;24.31;58.76
35489;BME280;21602;55.670;37.578;2022-07-09T09:32:41;99240.00;;;24.53;58.35
35489;BME280;21602;55.670;37.578;2022-07-09T09:35:07;99228.81;;;24.75;58.21
35489;BME280;21602;55.670;37.578;2022-07-09T09:37:33;99223.03;;;24.98;57.65
35489;BME280;21602;55.670;37.578;2022-07-09T09:39:58;99218.81;;;25.09;56.72
35489;BME280;21602;55.670;37.578;2022-07-09T09:42:24;99219.88;;;25.17;57.57
35489;BME280;21602;55.670;37.578;2022-07-09T09:44:52;99215.16;;;25.26;56.01
35489;BME280;21602;55.670;37.578;2022-07-09T09:47:23;99200.34;;;25.27;55.52
35489;BME280;21602;55.670;37.578;2022-07-09T09:49:49;99200.28;;;25.15;55.85
35489;BME280;21602;55.670;37.578;2022-07-09T09:52:16;99207.91;;;25.00;56.33
35489;BME280;21602;55.670;37.578;2022-07-09T09:54:44;99204.56;;;24.95;56.95
35489;BME280;21602;55.670;37.578;2022-07-09T09:57:12;99198.53;;;24.89;58.15
35489;BME280;21602;55.670;37.578;2022-07-09T09:59:39;99192.38;;;24.92;57.75
35489;BME280;21602;55.670;37.578;2022-07-09T10:02:06;99194.44;;;24.95;58.22
35489;BME280;21602;55.670;37.578;2022-07-09T10:04:38;99185.84;;;25.06;58.15
35489;BME280;21602;55.670;37.578;2022-07-09T10:07:04;99190.72;;;25.21;58.31
35489;BME280;21602;55.670;37.578;2022-07-09T10:09:30;99185.78;;;25.35;57.31
35489;BME280;21602;55.670;37.578;2022-07-09T10:11:56;99181.97;;;25.48;56.54
35489;BME280;21602;55.670;37.578;2022-07-09T10:16:50;99187.91;;;25.50;55.09
35489;BME280;21602;55.670;37.578;2022-07-09T10:21:51;99185.91;;;25.26;56.32
35489;BME280;21602;55.670;37.578;2022-07-09T10:24:22;99182.44;;;25.17;56.63
35489;BME280;21602;55.670;37.578;2022-07-09T10:26:48;99175.84;;;25.18;57.63
35489;BME280;21602;55.670;37.578;2022-07-09T10:29:24;99175.09;;;25.09;56.50
35489;BME280;21602;55.670;37.578;2022-07-09T10:31:50;99175.03;;;25.18;57.28
35489;BME280;21602;55.670;37.578;2022-07-09T10:34:30;99167.44;;;25.23;56.57
35489;BME280;21602;55.670;37.578;2022-07-09T10:36:58;99160.41;;;25.35;57.00
35489;BME280;21602;55.670;37.578;2022-07-09T10:39:24;99153.97;;;25.51;56.82
35489;BME280;21602;55.670;37.578;2022-07-09T10:42:05;99154.63;;;25.36;56.62
35489;BME280;21602;55.670;37.578;2022-07-09T10:44:35;99150.78;;;25.16;57.09
35489;BME280;21602;55.670;37.578;2022-07-09T10:47:01;99149.81;;;25.33;57.72
35489;BME280;21602;55.670;37.578;2022-07-09T10:49:27;99143.69;;;25.36;57.42
35489;BME280;21602;55.670;37.578;2022-07-09T10:51:59;99135.00;;;25.34;57.62
35489;BME280;21602;55.670;37.578;2022-07-09T10:54:25;99129.94;;;25.12;58.01
35489;BME280;21602;55.670;37.578;2022-07-09T10:56:51;99125.41;;;24.74;59.02
35489;BME280;21602;55.670;37.578;2022-07-09T10:59:17;99122.25;;;24.42;58.36
35489;BME280;21602;55.670;37.578;2022-07-09T11:01:45;99115.06;;;24.38;59.18
35489;BME280;21602;55.670;37.578;2022-07-09T11:04:11;99113.94;;;24.30;59.01
35489;BME280;21602;55.670;37.578;2022-07-09T11:06:45;99101.38;;;24.17;58.37
35489;BME280;21602;55.670;37.578;2022-07-09T11:09:14;99110.84;;;24.11;58.45
35489;BME280;21602;55.670;37.578;2022-07-09T11:11:44;99092.44;;;24.08;53.78
35489;BME280;21602;55.670;37.578;2022-07-09T11:14:10;99085.69;;;24.05;53.35
35489;BME280;21602;55.670;37.578;2022-07-09T11:16:36;99095.41;;;24.15;53.21
35489;BME280;21602;55.670;37.578;2022-07-09T11:19:19;99085.16;;;24.12;51.51
35489;BME280;21602;55.670;37.578;2022-07-09T11:21:47;99087.44;;;24.39;52.48
35489;BME280;21602;55.670;37.578;2022-07-09T11:24:16;99089.72;;;24.37;51.58
35489;BME280;21602;55.670;37.578;2022-07-09T11:26:42;99076.59;;;24.51;51.76
35489;BME280;21602;55.670;37.578;2022-07-09T11:29:08;99082.63;;;24.78;52.09
35489;BME280;21602;55.670;37.578;2022-07-09T11:31:34;99065.63;;;25.14;52.20
35489;BME280;21602;55.670;37.578;2022-07-09T11:34:00;99065.13;;;25.33;51.60
35489;BME280;21602;55.670;37.578;2022-07-09T11:36:45;99061.94;;;25.31;52.30
35489;BME280;21602;55.670;37.578;2022-07-09T11:39:30;99052.34;;;25.13;52.65
35489;BME280;21602;55.670;37.578;2022-07-09T11:41:56;99049.03;;;25.07;52.94
35489;BME280;21602;55.670;37.578;2022-07-09T11:44:23;99046.88;;;25.13;53.34
35489;BME280;21602;55.670;37.578;2022-07-09T11:49:34;99043.94;;;25.30;53.71
35489;BME280;21602;55.670;37.578;2022-07-09T11:51:59;99034.41;;;25.36;53.53
35489;BME280;21602;55.670;37.578;2022-07-09T11:54:26;99039.88;;;25.61;53.54
35489;BME280;21602;55.670;37.578;2022-07-09T11:56:52;99037.38;;;25.56;52.73
35489;BME280;21602;55.670;37.578;2022-07-09T11:59:30;99035.69;;;25.75;52.61
35489;BME280;21602;55.670;37.578;2022-07-09T12:01:59;99037.16;;;26.10;52.06
35489;BME280;21602;55.670;37.578;2022-07-09T12:04:29;99033.22;;;26.47;51.67
35489;BME280;21602;55.670;37.578;2022-07-09T12:06:55;99034.06;;;26.92;51.21
35489;BME280;21602;55.670;37.578;2022-07-09T12:09:30;99037.53;;;27.17;51.42
35489;BME280;21602;55.670;37.578;2022-07-09T12:11:57;99027.81;;;27.98;49.81
35489;BME280;21602;55.670;37.578;2022-07-09T12:14:23;99024.88;;;28.62;49.17
35489;BME280;21602;55.670;37.578;2022-07-09T12:16:48;99028.91;;;28.87;48.42
35489;BME280;21602;55.670;37.578;2022-07-09T12:19:14;99015.91;;;28.65;48.13
35489;BME280;21602;55.670;37.578;2022-07-09T12:21:39;99022.78;;;28.55;48.59
35489;BME280;21602;55.670;37.578;2022-07-09T12:24:05;99019.59;;;27.83;49.28
35489;BME280;21602;55.670;37.578;2022-07-09T12:26:30;99016.31;;;27.29;50.52
35489;BME280;21602;55.670;37.578;2022-07-09T12:28:56;99013.00;;;26.92;51.18
35489;BME280;21602;55.670;37.578;2022-07-09T12:31:22;99012.22;;;26.39;51.65
35489;BME280;21602;55.670;37.578;2022-07-09T12:33:47;99009.69;;;26.06;51.95
35489;BME280;21602;55.670;37.578;2022-07-09T12:36:13;99009.59;;;25.90;52.31
35489;BME280;21602;55.670;37.578;2022-07-09T12:38:42;99006.06;;;26.02;51.89
35489;BME280;21602;55.670;37.578;2022-07-09T12:41:07;99001.03;;;26.16;51.42
35489;BME280;21602;55.670;37.578;2022-07-09T12:43:33;98994.13;;;26.35;51.75
35489;BME280;21602;55.670;37.578;2022-07-09T12:45:58;98991.81;;;26.49;51.02
35489;BME280;21602;55.670;37.578;2022-07-09T12:48:24;98981.88;;;26.57;50.36
35489;BME280;21602;55.670;37.578;2022-07-09T12:50:50;98988.81;;;26.14;50.35
35489;BME280;21602;55.670;37.578;2022-07-09T12:53:15;98987.25;;;26.13;50.17